Time;durP1;ratioP1;P1;durP2;ratioP2;P2;SDS_P1;SDS_P2;PMS_P1;PMS_P2;Temp;Humidity;BMP_temperature;BMP_pressure;BME280_temperature;BME280_humidity;BME280_pressure;Samples;Min_cycle;Max_cycle;Signal;HPM_P1;HPM_P2
2022/05/29 00:04:50;;;;;;;1.95;1.15;;;;;;;20.08;57.00;101323.75;25678186;23;20128;-59
2022/05/29 00:14:52;;;;;;;2.53;1.00;;;;;;;20.03;56.53;101316.09;25673804;23;20024;-59
2022/05/29 00:24:53;;;;;;;1.67;1.05;;;;;;;20.03;56.87;101307.97;25676201;23;20517;-60
2022/05/29 00:34:55;;;;;;;2.55;0.93;;;;;;;20.03;56.69;101297.16;25676401;23;20028;-60
2022/05/29 00:44:56;;;;;;;2.70;0.98;;;;;;;20.02;56.71;101291.88;25672644;23;20538;-60
2022/05/29 00:55:05;;;;;;;2.65;0.77;;;;;;;19.98;56.45;101285.94;25674093;23;20082;-60
2022/05/29 01:05:09;;;;;;;3.13;1.30;;;;;;;19.95;56.43;101278.94;25675727;23;20032;-60
2022/05/29 01:15:41;;;;;;;2.07;1.10;;;;;;;19.93;56.32;101266.59;25645648;23;20047;-59
2022/05/29 01:25:57;;;;;;;3.85;1.58;;;;;;;19.92;56.14;101254.06;25665015;23;20044;-60
2022/05/29 01:36:03;;;;;;;1.60;0.90;;;;;;;19.90;56.26;101248.78;25646913;23;20020;-59
2022/05/29 01:46:07;;;;;;;2.55;1.08;;;;;;;19.89;55.81;101248.91;25647556;23;20021;-60
2022/05/29 01:56:33;;;;;;;2.53;0.90;;;;;;;19.85;55.88;101243.75;25671652;23;20104;-59
2022/05/29 02:17:04;;;;;;;2.25;1.00;;;;;;;19.61;56.05;101194.72;25681230;23;20021;-59
2022/05/29 02:27:11;;;;;;;2.65;0.93;;;;;;;19.80;56.08;101212.78;25678828;23;20020;-59
2022/05/29 02:37:30;;;;;;;2.20;0.93;;;;;;;19.78;55.61;101204.81;25680875;23;20023;-60
2022/05/29 02:47:40;;;;;;;2.38;1.10;;;;;;;19.76;55.76;101189.75;25651479;23;20328;-60
2022/05/29 02:57:41;;;;;;;2.63;1.00;;;;;;;19.73;55.95;101171.97;25651654;23;20016;-60
2022/05/29 03:07:50;;;;;;;2.10;0.90;;;;;;;19.74;55.93;101176.38;25679844;23;20024;-60
2022/05/29 03:17:57;;;;;;;2.10;1.27;;;;;;;19.72;55.61;101167.56;25655558;23;20016;-60
2022/05/29 03:28:00;;;;;;;2.65;1.02;;;;;;;19.55;55.77;101148.38;25682433;23;20041;-60
2022/05/29 03:38:03;;;;;;;3.10;1.20;;;;;;;19.70;56.12;101180.34;25676531;23;20351;-60
2022/05/29 03:48:05;;;;;;;3.42;1.13;;;;;;;19.69;56.56;101176.81;25651498;23;20021;-59
2022/05/29 03:58:07;;;;;;;1.45;0.60;;;;;;;19.68;56.49;101161.59;25648999;23;20021;-59
2022/05/29 04:18:28;;;;;;;2.55;0.90;;;;;;;19.67;56.85;101141.00;25653236;23;20032;-59
2022/05/29 04:28:30;;;;;;;3.67;1.25;;;;;;;19.67;56.83;101146.41;25622206;23;20012;-60
2022/05/29 06:07:54;;;;;;;1.70;1.08;;;;;;;18.04;66.27;101139.13;20887341;27;20357;-62
2022/05/29 06:17:56;;;;;;;5.45;1.42;;;;;;;18.23;66.27;101142.94;20984700;28;20060;-62
2022/05/29 06:27:58;;;;;;;5.82;1.30;;;;;;;18.35;66.01;101144.56;20986678;28;20029;-64
2022/05/29 06:37:59;;;;;;;2.80;1.00;;;;;;;18.39;65.76;101147.84;20989914;28;20048;-64
2022/05/29 06:48:01;;;;;;;1.67;0.85;;;;;;;18.44;65.07;101145.63;20967613;28;20055;-65
2022/05/29 06:58:02;;;;;;;2.85;0.98;;;;;;;18.45;64.64;101151.84;20974746;28;20117;-64
2022/05/29 07:08:06;;;;;;;2.72;0.95;;;;;;;18.48;64.04;101157.84;20989420;28;20044;-64
2022/05/29 07:18:07;;;;;;;3.08;0.90;;;;;;;18.51;63.64;101145.91;20925762;28;20067;-64
2022/05/29 07:28:09;;;;;;;2.58;0.90;;;;;;;18.55;63.32;101153.59;20918424;28;20045;-64
2022/05/29 07:38:10;;;;;;;2.17;1.00;;;;;;;18.59;63.07;101153.34;20936565;28;20062;-64
2022/05/29 07:48:14;;;;;;;1.88;0.90;;;;;;;18.54;62.67;101148.34;20939222;28;20044;-65
2022/05/29 07:58:17;;;;;;;2.95;1.10;;;;;;;18.66;62.87;101154.50;20929479;28;20182;-69
2022/05/29 08:08:19;;;;;;;3.42;0.95;;;;;;;18.72;63.18;101153.13;20928910;28;20040;-65
2022/05/29 08:18:20;;;;;;;2.70;1.17;;;;;;;18.74;63.42;101156.53;20952513;28;20432;-65
2022/05/29 08:44:14;;;;;;;4.10;1.27;;;;;;;18.48;61.72;101162.34;20943817;27;50241;-86
2022/05/29 08:54:37;;;;;;;2.05;0.95;;;;;;;18.00;63.26;101164.59;20931973;28;20047;-88
2022/05/29 09:04:43;;;;;;;2.47;1.10;;;;;;;17.77;64.36;101167.41;20925855;28;20515;-88
2022/05/29 09:15:03;;;;;;;2.97;0.88;;;;;;;17.61;64.89;101157.06;20934085;28;20120;-86
2022/05/29 09:25:26;;;;;;;2.67;0.90;;;;;;;17.52;65.31;101173.97;20943548;28;20487;-84
2022/05/29 09:35:37;;;;;;;2.50;0.70;;;;;;;17.55;66.41;101165.66;20901247;28;20541;-85
2022/05/29 09:45:39;;;;;;;1.33;0.63;;;;;;;17.58;66.26;101159.13;20876104;28;20045;-84
2022/05/29 09:56:01;;;;;;;4.05;1.00;;;;;;;17.54;66.40;101159.38;20878845;28;20049;-86
2022/05/29 10:06:26;;;;;;;3.33;1.15;;;;;;;17.27;66.07;101119.47;20765448;28;20051;-85
2022/05/29 10:16:37;;;;;;;1.55;0.68;;;;;;;17.46;66.06;101148.41;20761319;28;20131;-89
2022/05/29 10:26:39;;;;;;;2.15;0.95;;;;;;;17.45;66.06;101153.91;20781687;28;20045;-84
2022/05/29 10:36:40;;;;;;;2.85;0.90;;;;;;;17.33;66.21;101131.59;20761475;28;20383;-82
2022/05/29 10:46:44;;;;;;;2.22;0.73;;;;;;;17.42;66.14;101156.84;20782410;28;20430;-84
2022/05/29 10:57:25;;;;;;;1.67;0.70;;;;;;;17.41;66.07;101150.63;20752652;28;20081;-84
2022/05/29 11:07:41;;;;;;;1.45;0.65;;;;;;;17.35;65.97;101126.94;20773843;28;20049;-84
2022/05/29 11:18:08;;;;;;;1.33;0.70;;;;;;;17.42;65.84;101132.63;20773649;28;20081;-82
2022/05/29 11:28:18;;;;;;;2.40;0.82;;;;;;;17.32;65.76;101128.03;20771174;28;20060;-83
2022/05/29 11:38:39;;;;;;;2.17;0.80;;;;;;;17.39;65.73;101123.84;20789066;28;20131;-82
2022/05/29 11:59:49;;;;;;;1.55;0.80;;;;;;;17.23;65.43;101074.97;20800553;28;20068;-82
2022/05/29 12:10:01;;;;;;;1.35;0.63;;;;;;;17.40;65.87;101119.31;20770705;28;20053;-82
2022/05/29 12:20:09;;;;;;;1.42;0.60;;;;;;;17.39;65.83;101113.06;20743691;28;20130;-82
2022/05/29 12:30:25;;;;;;;0.88;0.60;;;;;;;17.33;66.15;101093.91;20802857;28;20485;-81
2022/05/29 12:40:56;;;;;;;1.98;0.70;;;;;;;17.38;66.16;101099.75;20834542;28;20505;-82
2022/05/29 12:51:14;;;;;;;2.15;0.68;;;;;;;17.38;66.11;101092.53;20834663;28;20510;-81
2022/05/29 13:01:34;;;;;;;2.25;0.70;;;;;;;17.39;66.13;101080.78;20837629;28;20052;-82
2022/05/29 13:11:39;;;;;;;2.05;0.80;;;;;;;17.39;66.25;101085.31;20833395;28;20073;-82
2022/05/29 13:22:04;;;;;;;1.40;0.70;;;;;;;17.38;66.08;101092.53;20821032;28;20090;-82
2022/05/29 13:32:12;;;;;;;1.58;0.77;;;;;;;17.37;66.28;101093.50;20801017;28;20053;-82
2022/05/29 13:42:35;;;;;;;2.50;0.93;;;;;;;17.36;66.43;101097.19;20768876;28;20135;-82
2022/05/29 13:52:45;;;;;;;2.33;0.75;;;;;;;17.36;66.30;101102.56;20773971;28;20172;-82
2022/05/29 14:13:30;;;;;;;1.17;0.63;;;;;;;17.39;66.71;101096.09;20809000;28;20070;-83
2022/05/29 14:23:46;;;;;;;1.77;0.65;;;;;;;17.40;67.03;101087.88;20773269;28;20076;-85
2022/05/29 14:34:22;;;;;;;3.70;1.10;;;;;;;17.41;67.45;101091.44;20781374;28;20282;-83
2022/05/29 14:44:43;;;;;;;1.50;0.70;;;;;;;17.40;67.60;101084.34;20841662;28;20052;-85
2022/05/29 14:54:50;;;;;;;2.70;0.80;;;;;;;17.39;67.76;101090.69;20853179;28;20041;-85
2022/05/29 15:04:51;;;;;;;1.05;0.47;;;;;;;17.33;68.06;101075.06;20834459;28;20632;-84
2022/05/29 15:15:26;;;;;;;3.08;1.00;;;;;;;17.37;68.38;101081.91;20839628;28;20182;-83
2022/05/29 15:25:28;;;;;;;2.25;0.77;;;;;;;17.39;68.40;101079.94;20789897;28;20049;-84
2022/05/29 15:35:44;;;;;;;2.45;0.70;;;;;;;17.37;68.66;101076.53;20747119;28;20552;-83
2022/05/29 15:46:04;;;;;;;1.33;0.50;;;;;;;17.38;68.64;101083.63;20802319;28;20102;-85
2022/05/29 15:56:15;;;;;;;2.97;1.00;;;;;;;17.37;68.77;101087.28;20790316;28;20530;-83
2022/05/29 16:06:23;;;;;;;1.30;0.73;;;;;;;17.35;68.88;101078.50;20834993;28;20132;-86
2022/05/29 16:16:29;;;;;;;3.03;0.68;;;;;;;17.35;68.87;101073.94;20836641;28;20564;-85
2022/05/29 16:26:50;;;;;;;1.73;0.60;;;;;;;17.14;68.85;101035.41;20835175;28;20049;-85
2022/05/29 16:57:57;;;;;;;2.15;0.80;;;;;;;17.34;68.96;101056.09;20828479;28;20049;-84
2022/05/29 17:08:02;;;;;;;2.53;0.80;;;;;;;17.33;69.02;101049.00;20848487;28;20128;-84
2022/05/29 17:18:04;;;;;;;2.53;0.75;;;;;;;17.33;68.89;101056.25;20865846;28;20049;-86
2022/05/29 17:28:21;;;;;;;2.75;0.85;;;;;;;17.32;69.01;101054.53;20862973;28;20443;-84
2022/05/29 17:38:31;;;;;;;1.02;0.70;;;;;;;16.82;68.82;100969.84;20840050;28;20061;-85
2022/05/29 17:48:45;;;;;;;2.38;0.85;;;;;;;17.31;68.60;101056.34;20877993;28;20050;-85
2022/05/29 17:58:47;;;;;;;0.77;0.55;;;;;;;17.30;68.58;101051.13;20849996;28;20486;-85
2022/05/29 18:08:49;;;;;;;2.97;0.88;;;;;;;17.29;68.59;101052.94;20850666;28;20076;-85
2022/05/29 18:18:50;;;;;;;3.05;1.30;;;;;;;17.21;68.28;101031.22;20820524;28;20056;-87
2022/05/29 18:28:52;;;;;;;2.95;1.00;;;;;;;17.27;67.80;101038.75;20891079;28;20055;-92
2022/05/29 18:38:53;;;;;;;2.22;0.90;;;;;;;17.30;67.59;101043.03;20810449;28;20533;-83
2022/05/29 18:48:56;;;;;;;3.90;0.95;;;;;;;16.99;67.29;100994.50;20731468;28;20049;-83
2022/05/29 18:59:02;;;;;;;1.85;0.80;;;;;;;17.19;66.73;101033.16;20758568;28;20084;-84
2022/05/29 19:09:04;;;;;;;2.58;1.15;;;;;;;17.15;66.62;101035.25;20779980;28;20115;-83
2022/05/29 19:19:06;;;;;;;0.90;0.60;;;;;;;17.24;66.46;101041.72;20770302;28;20074;-83
2022/05/29 19:29:07;;;;;;;2.05;0.75;;;;;;;17.22;66.07;101052.59;20800753;28;20111;-83
2022/05/29 19:39:11;;;;;;;2.20;0.63;;;;;;;17.21;65.82;101053.56;20779279;28;20522;-83
2022/05/29 19:49:12;;;;;;;2.10;0.88;;;;;;;17.20;65.99;101049.16;20757928;28;20045;-83
2022/05/29 19:59:15;;;;;;;2.90;1.20;;;;;;;17.03;65.63;101014.75;20792934;28;20096;-83
2022/05/29 20:09:16;;;;;;;1.63;1.00;;;;;;;17.19;65.40;101042.09;20723550;28;20046;-83
2022/05/29 20:19:18;;;;;;;4.28;1.73;;;;;;;17.09;65.35;101042.03;20766502;28;20197;-83
2022/05/29 20:29:20;;;;;;;3.10;1.20;;;;;;;17.14;65.18;101038.94;20789229;28;20107;-83
2022/05/29 20:39:22;;;;;;;1.63;0.75;;;;;;;17.16;65.28;101041.50;20792945;28;20071;-83
2022/05/29 20:49:24;;;;;;;2.45;0.98;;;;;;;16.99;64.84;101016.84;20790713;28;20096;-83
2022/05/29 20:59:25;;;;;;;2.33;1.33;;;;;;;17.16;64.74;101047.72;20784355;28;20571;-83
2022/05/29 21:09:27;;;;;;;1.52;0.80;;;;;;;17.03;64.64;101031.78;20776528;28;20128;-84
2022/05/29 21:19:29;;;;;;;1.67;0.95;;;;;;;17.08;64.62;101023.31;20789774;28;20115;-83
2022/05/29 21:29:30;;;;;;;2.53;1.08;;;;;;;17.14;64.39;101032.72;20872496;28;20052;-83
2022/05/29 21:39:32;;;;;;;0.95;0.63;;;;;;;17.14;64.43;101024.63;20797590;28;20069;-83
2022/05/29 21:49:34;;;;;;;2.88;0.75;;;;;;;17.06;64.34;101023.44;20801495;28;20118;-83
2022/05/29 21:59:36;;;;;;;2.47;0.85;;;;;;;17.13;64.25;101042.59;20804580;28;20496;-84
2022/05/29 22:09:37;;;;;;;1.77;1.00;;;;;;;17.11;64.11;101025.72;20798582;28;20104;-83
2022/05/29 22:19:39;;;;;;;1.77;0.90;;;;;;;16.87;64.19;100983.75;20763553;28;20051;-81
2022/05/29 22:29:41;;;;;;;1.73;0.75;;;;;;;17.12;63.99;101031.97;20774505;28;20228;-81
2022/05/29 22:39:48;;;;;;;2.50;0.80;;;;;;;17.11;64.04;101028.44;20707147;28;20046;-83
2022/05/29 22:49:58;;;;;;;2.03;1.08;;;;;;;17.09;63.84;101031.25;20789247;28;20083;-84
2022/05/29 23:00:00;;;;;;;2.10;0.82;;;;;;;17.09;64.01;101036.63;20794813;28;20057;-81
2022/05/29 23:10:03;;;;;;;2.63;0.80;;;;;;;17.09;63.79;101022.31;20776170;28;20477;-81
2022/05/29 23:20:06;;;;;;;1.17;0.70;;;;;;;17.07;63.92;101010.84;20790856;28;20449;-82
2022/05/29 23:30:11;;;;;;;1.98;0.80;;;;;;;17.00;63.64;100993.50;20792979;28;20042;-82
2022/05/29 23:40:15;;;;;;;1.83;0.90;;;;;;;17.01;63.77;100997.91;20793959;28;20561;-81
2022/05/29 23:50:17;;;;;;;1.90;0.80;;;;;;;16.89;63.72;100975.53;20756364;28;20466;-82
